createdAt,value
2023-03-24T00:00:25.185Z,47.00
2023-03-24T00:02:54.221Z,46.60
2023-03-24T00:05:23.776Z,48.00
2023-03-24T00:07:54.936Z,45.80
2023-03-24T00:10:24.726Z,49.40
2023-03-24T00:12:56.484Z,48.00
2023-03-24T00:15:27.456Z,46.40
2023-03-24T00:17:58.434Z,47.30
2023-03-24T00:20:27.232Z,46.90
2023-03-24T00:22:59.072Z,48.40
2023-03-24T00:25:34.108Z,48.20
2023-03-24T00:28:07.386Z,46.70
2023-03-24T00:30:36.564Z,46.20
2023-03-24T00:33:05.043Z,47.10
2023-03-24T00:35:33.513Z,50.30
2023-03-24T00:38:03.011Z,44.60
2023-03-24T00:40:31.467Z,44.70
2023-03-24T00:43:00.680Z,45.30
2023-03-24T00:45:34.614Z,47.60
2023-03-24T00:48:06.548Z,45.90
2023-03-24T00:50:35.099Z,46.40
2023-03-24T00:53:03.367Z,43.50
2023-03-24T00:55:32.395Z,45.90
2023-03-24T00:58:01.459Z,47.50
2023-03-24T01:00:30.789Z,46.30
2023-03-24T01:03:00.010Z,45.90
2023-03-24T01:05:30.867Z,45.70
2023-03-24T01:08:03.940Z,45.10
2023-03-24T01:10:42.626Z,45.80
2023-03-24T01:13:12.728Z,44.00
2023-03-24T01:15:41.092Z,43.20
2023-03-24T01:18:09.982Z,43.40
2023-03-24T01:20:40.960Z,43.60
2023-03-24T01:23:11.394Z,43.70
2023-03-24T01:25:45.418Z,43.00
2023-03-24T01:28:17.615Z,41.70
2023-03-24T01:30:46.129Z,42.90
2023-03-24T01:33:15.740Z,41.60
2023-03-24T01:35:45.222Z,43.70
2023-03-24T01:38:14.906Z,44.80
2023-03-24T01:40:47.514Z,41.40
2023-03-24T01:43:22.430Z,42.90
2023-03-24T01:45:51.221Z,41.50
2023-03-24T01:48:37.005Z,44.90
2023-03-24T01:51:12.605Z,44.80
2023-03-24T01:53:46.909Z,42.80
2023-03-24T01:56:18.710Z,44.40
2023-03-24T01:58:56.349Z,46.50
2023-03-24T02:01:54.674Z,47.20
2023-03-24T02:04:50.603Z,46.00
2023-03-24T02:07:46.348Z,43.40
2023-03-24T02:10:18.471Z,44.20
2023-03-24T02:12:47.681Z,40.20
2023-03-24T02:15:20.812Z,43.60
2023-03-24T02:18:08.330Z,41.20
2023-03-24T02:21:04.907Z,44.10
2023-03-24T02:24:05.119Z,47.30
2023-03-24T02:26:39.989Z,41.30
2023-03-24T02:29:11.555Z,44.10
2023-03-24T02:31:49.235Z,43.40
2023-03-24T02:34:52.068Z,42.80
2023-03-24T02:40:08.329Z,41.40
2023-03-24T02:43:14.736Z,36.90
2023-03-24T02:46:04.871Z,37.40
2023-03-24T02:48:50.523Z,37.10
2023-03-24T02:51:35.980Z,32.80
2023-03-24T02:54:19.423Z,33.20
2023-03-24T02:56:54.640Z,36.30
2023-03-24T02:59:37.691Z,34.00
2023-03-24T03:02:23.748Z,35.50
2023-03-24T03:05:06.263Z,33.80
2023-03-24T03:07:38.436Z,36.20
2023-03-24T03:10:15.939Z,33.50
2023-03-24T03:12:50.493Z,30.40
2023-03-24T03:15:25.135Z,37.60
2023-03-24T03:18:03.072Z,32.70
2023-03-24T03:20:38.691Z,32.20
2023-03-24T03:23:12.153Z,29.40
2023-03-24T03:25:53.890Z,30.80
2023-03-24T03:28:30.165Z,32.50
2023-03-24T03:31:06.064Z,33.00
2023-03-24T03:33:41.729Z,32.70
2023-03-24T03:36:33.359Z,34.20
2023-03-24T03:39:19.650Z,33.80
2023-03-24T03:41:48.761Z,33.30
2023-03-24T03:44:17.241Z,39.40
2023-03-24T03:46:47.014Z,38.70
2023-03-24T03:49:20.032Z,42.30
2023-03-24T03:51:49.167Z,41.40
2023-03-24T03:54:19.746Z,42.70
2023-03-24T03:56:50.100Z,46.60
2023-03-24T03:59:27.594Z,45.70
2023-03-24T04:01:57.121Z,43.10
2023-03-24T04:05:05.923Z,44.30
2023-03-24T04:07:58.354Z,49.30
2023-03-24T04:11:10.040Z,47.90
2023-03-24T04:14:02.409Z,46.10
2023-03-24T04:17:01.976Z,48.60
2023-03-24T04:19:42.601Z,45.40
2023-03-24T04:22:22.028Z,45.10
2023-03-24T04:25:02.199Z,44.90
2023-03-24T04:27:46.836Z,43.50
2023-03-24T04:30:37.422Z,43.80
2023-03-24T04:33:41.760Z,43.40
2023-03-24T04:36:19.210Z,44.50
2023-03-24T04:39:07.415Z,43.70
2023-03-24T04:41:44.942Z,46.20
2023-03-24T04:44:22.021Z,45.90
2023-03-24T04:47:11.588Z,47.30
2023-03-24T04:49:41.318Z,46.60
2023-03-24T04:52:09.604Z,46.20
2023-03-24T04:54:39.057Z,43.80
2023-03-24T04:57:08.138Z,47.00
2023-03-24T04:59:46.313Z,45.70
2023-03-24T05:02:15.843Z,41.10
2023-03-24T05:05:08.085Z,39.60
2023-03-24T05:07:46.406Z,42.20
2023-03-24T05:10:17.083Z,44.10
2023-03-24T05:12:51.594Z,40.80
2023-03-24T05:15:29.307Z,42.70
2023-03-24T05:18:06.376Z,44.20
2023-03-24T05:20:36.488Z,45.50
2023-03-24T05:23:13.278Z,42.10
2023-03-24T05:25:46.806Z,40.00
2023-03-24T05:28:17.733Z,40.70
2023-03-24T05:30:47.362Z,38.60
2023-03-24T05:33:34.701Z,36.00
2023-03-24T05:36:05.046Z,35.00
2023-03-24T05:38:40.893Z,38.50
2023-03-24T05:41:10.108Z,34.20
2023-03-24T05:43:41.120Z,34.90
2023-03-24T05:46:12.149Z,36.30
2023-03-24T05:48:41.483Z,35.00
2023-03-24T05:51:17.173Z,33.80
2023-03-24T05:53:46.248Z,35.60
2023-03-24T05:56:17.369Z,31.10
2023-03-24T05:59:04.964Z,30.20
2023-03-24T06:01:53.616Z,31.70
2023-03-24T06:04:30.666Z,25.10
2023-03-24T06:07:09.091Z,25.20
2023-03-24T06:09:42.637Z,26.50
2023-03-24T06:12:14.227Z,24.50
2023-03-24T06:14:49.705Z,25.40
2023-03-24T06:17:21.549Z,24.40
2023-03-24T06:19:53.726Z,23.50
2023-03-24T06:22:41.176Z,22.10
2023-03-24T06:25:17.042Z,26.60
2023-03-24T06:27:53.623Z,24.40
2023-03-24T06:30:27.109Z,24.30
2023-03-24T06:32:56.500Z,23.30
2023-03-24T06:35:25.877Z,24.30
2023-03-24T06:38:09.692Z,22.30
2023-03-24T06:40:39.003Z,22.80
2023-03-24T06:43:07.484Z,22.60
2023-03-24T06:45:40.379Z,22.80
2023-03-24T06:48:10.957Z,21.80
2023-03-24T06:50:41.186Z,21.80
2023-03-24T06:53:12.228Z,23.70
2023-03-24T06:55:43.454Z,24.90
2023-03-24T06:58:15.145Z,25.80
2023-03-24T07:01:13.260Z,22.90
2023-03-24T07:03:58.085Z,21.50
2023-03-24T07:06:26.869Z,19.60
2023-03-24T07:08:58.185Z,20.50
2023-03-24T07:11:29.026Z,22.60
2023-03-24T07:14:01.463Z,21.30
2023-03-24T07:16:37.392Z,20.30
2023-03-24T07:19:32.641Z,19.70
2023-03-24T07:22:24.626Z,16.70
2023-03-24T07:25:14.503Z,16.30
2023-03-24T07:27:56.656Z,12.90
2023-03-24T07:30:33.651Z,12.70
2023-03-24T07:33:12.842Z,12.10
2023-03-24T07:35:43.623Z,15.00
2023-03-24T07:38:16.075Z,12.90
2023-03-24T07:40:44.839Z,12.00
2023-03-24T07:43:15.857Z,11.70
2023-03-24T07:46:23.115Z,13.10
2023-03-24T07:48:53.614Z,17.90
2023-03-24T07:51:22.602Z,13.20
2023-03-24T07:54:26.814Z,14.50
2023-03-24T07:56:56.360Z,17.00
2023-03-24T07:59:26.820Z,13.50
2023-03-24T08:02:30.291Z,12.90
2023-03-24T08:05:02.893Z,13.30
2023-03-24T08:07:54.268Z,11.00
2023-03-24T08:10:28.553Z,12.60
2023-03-24T08:13:02.823Z,13.50
2023-03-24T08:15:31.855Z,12.40
2023-03-24T08:18:02.344Z,11.90
2023-03-24T08:23:05.140Z,11.90
2023-03-24T08:25:34.844Z,12.90
2023-03-24T08:28:03.444Z,13.40
2023-03-24T08:30:32.709Z,11.90
2023-03-24T08:33:02.661Z,12.70
2023-03-24T08:35:39.163Z,12.50
2023-03-24T08:38:10.271Z,11.00
2023-03-24T08:40:41.718Z,10.90
2023-03-24T08:43:16.158Z,11.20
2023-03-24T08:45:44.805Z,10.60
2023-03-24T08:48:13.158Z,11.00
2023-03-24T08:50:42.541Z,9.90
2023-03-24T08:53:12.632Z,11.20
2023-03-24T08:55:43.613Z,10.20
2023-03-24T08:58:19.215Z,10.50
2023-03-24T09:00:48.903Z,10.20
2023-03-24T09:03:22.445Z,11.40
2023-03-24T09:05:57.697Z,10.30
2023-03-24T09:08:26.523Z,10.40
2023-03-24T09:10:54.903Z,11.80
2023-03-24T09:13:24.590Z,9.30
2023-03-24T09:15:58.364Z,10.10
2023-03-24T09:18:26.935Z,10.50
2023-03-24T09:20:55.628Z,10.40
2023-03-24T09:23:24.417Z,11.80
2023-03-24T09:25:53.995Z,11.60
2023-03-24T09:28:24.410Z,10.60
2023-03-24T09:31:06.304Z,10.60
2023-03-24T09:33:35.167Z,10.40
2023-03-24T09:36:05.403Z,9.90
2023-03-24T09:38:35.258Z,9.00
2023-03-24T09:41:04.502Z,10.70
2023-03-24T09:43:44.942Z,9.60
2023-03-24T09:46:26.807Z,9.70
2023-03-24T09:48:57.776Z,9.40
2023-03-24T09:51:37.372Z,9.20
2023-03-24T09:54:25.442Z,10.00
2023-03-24T09:56:56.163Z,9.00
2023-03-24T09:59:39.904Z,8.70
2023-03-24T10:02:16.317Z,9.70
2023-03-24T10:04:45.069Z,9.40
2023-03-24T10:07:39.855Z,9.20
2023-03-24T10:10:22.223Z,9.10
2023-03-24T10:12:51.170Z,9.20
2023-03-24T10:15:34.584Z,8.80
2023-03-24T10:18:13.145Z,8.30
2023-03-24T10:20:50.871Z,8.00
2023-03-24T10:23:46.093Z,8.00
2023-03-24T10:26:39.434Z,8.40
2023-03-24T10:29:22.419Z,8.50
2023-03-24T10:32:22.563Z,8.60
2023-03-24T10:35:07.700Z,9.90
2023-03-24T10:37:37.308Z,7.50
2023-03-24T10:40:16.777Z,6.80
2023-03-24T10:42:48.959Z,6.10
2023-03-24T10:45:29.791Z,9.40
2023-03-24T10:48:02.433Z,15.70
2023-03-24T10:50:36.158Z,16.50
2023-03-24T10:55:40.051Z,9.00
2023-03-24T10:58:29.573Z,7.50
2023-03-24T11:01:00.853Z,7.60
2023-03-24T11:03:38.268Z,7.60
2023-03-24T11:06:07.386Z,10.10
2023-03-24T11:08:40.334Z,7.10
2023-03-24T11:11:30.769Z,6.60
2023-03-24T11:14:04.539Z,7.60
2023-03-24T11:16:39.039Z,7.20
2023-03-24T11:19:22.589Z,6.10
2023-03-24T11:21:58.001Z,7.30
2023-03-24T11:24:27.512Z,7.30
2023-03-24T11:26:59.156Z,7.60
2023-03-24T11:29:30.565Z,8.70
2023-03-24T11:32:12.328Z,7.30
2023-03-24T11:34:48.992Z,6.40
2023-03-24T11:37:21.920Z,7.50
2023-03-24T11:40:12.341Z,6.40
2023-03-24T11:42:45.929Z,6.30
2023-03-24T11:45:40.893Z,6.40
2023-03-24T11:48:23.881Z,6.30
2023-03-24T11:50:55.569Z,6.70
2023-03-24T11:53:28.729Z,6.60
2023-03-24T11:56:09.798Z,6.10
2023-03-24T11:58:56.959Z,6.40
2023-03-24T12:01:32.051Z,6.20
2023-03-24T12:04:25.185Z,5.80
2023-03-24T12:07:32.298Z,6.40
2023-03-24T12:10:19.886Z,6.80
2023-03-24T12:12:55.721Z,6.50
2023-03-24T12:15:52.359Z,7.00
2023-03-24T12:18:45.550Z,6.30
2023-03-24T12:21:27.282Z,6.80
2023-03-24T12:24:09.659Z,7.00
2023-03-24T12:26:39.933Z,7.00
2023-03-24T12:29:17.687Z,6.30
2023-03-24T12:32:14.290Z,6.40
2023-03-24T12:35:25.680Z,7.10
2023-03-24T12:38:30.578Z,6.80
2023-03-24T12:41:25.285Z,6.60
2023-03-24T12:44:05.728Z,6.20
2023-03-24T12:46:59.942Z,6.90
2023-03-24T12:49:46.898Z,6.40
2023-03-24T12:52:37.572Z,6.80
2023-03-24T12:55:17.853Z,6.10
2023-03-24T12:57:56.037Z,6.70
2023-03-24T13:00:34.484Z,5.30
2023-03-24T13:03:13.141Z,5.90
2023-03-24T13:05:51.615Z,6.20
2023-03-24T13:08:29.807Z,5.10
2023-03-24T13:11:05.603Z,11.80
2023-03-24T13:13:40.422Z,5.80
2023-03-24T13:16:25.983Z,10.10
2023-03-24T13:19:00.621Z,5.50
2023-03-24T13:21:31.778Z,5.80
2023-03-24T13:24:14.291Z,5.80
2023-03-24T13:27:17.361Z,5.30
2023-03-24T13:30:31.466Z,5.00
2023-03-24T13:33:14.786Z,4.70
2023-03-24T13:36:04.162Z,6.00
2023-03-24T13:38:38.009Z,5.90
2023-03-24T13:41:11.496Z,5.60
2023-03-24T13:43:52.134Z,6.20
2023-03-24T13:46:20.614Z,6.70
2023-03-24T13:48:56.155Z,6.20
2023-03-24T13:51:26.937Z,6.40
2023-03-24T13:54:06.209Z,6.00
2023-03-24T13:56:37.844Z,5.30
2023-03-24T13:59:21.150Z,5.00
2023-03-24T14:02:24.465Z,7.60
2023-03-24T14:05:08.385Z,6.50
2023-03-24T14:07:39.783Z,7.50
2023-03-24T14:10:41.665Z,11.20
2023-03-24T14:13:13.006Z,9.10
2023-03-24T14:18:27.320Z,7.80
2023-03-24T14:21:04.988Z,8.80
2023-03-24T14:23:46.085Z,9.80
2023-03-24T14:26:19.963Z,11.60
2023-03-24T14:28:53.793Z,15.10
2023-03-24T14:31:36.526Z,13.30
2023-03-24T14:34:20.556Z,11.00
2023-03-24T14:37:04.058Z,8.20
2023-03-24T14:39:46.595Z,7.50
2023-03-24T14:42:33.409Z,8.60
2023-03-24T14:45:02.469Z,9.90
2023-03-24T14:47:33.579Z,9.90
2023-03-24T14:50:18.885Z,9.40
2023-03-24T14:52:54.194Z,10.60
2023-03-24T14:55:23.084Z,8.50
2023-03-24T14:57:59.946Z,7.40
2023-03-24T15:00:57.893Z,9.40
2023-03-24T15:03:59.761Z,8.70
2023-03-24T15:06:44.846Z,8.80
2023-03-24T15:09:16.539Z,8.50
2023-03-24T15:11:47.930Z,6.90
2023-03-24T15:14:24.837Z,7.40
2023-03-24T15:17:22.768Z,7.30
2023-03-24T15:19:54.178Z,8.60
2023-03-24T15:22:22.627Z,7.60
2023-03-24T15:24:52.345Z,7.30
2023-03-24T15:27:26.790Z,6.40
2023-03-24T15:29:59.422Z,7.60
2023-03-24T15:32:33.135Z,6.90
2023-03-24T15:35:07.703Z,7.00
2023-03-24T15:37:41.394Z,7.20
2023-03-24T15:40:29.829Z,8.60
2023-03-24T15:43:00.922Z,7.00
2023-03-24T15:45:43.730Z,7.80
2023-03-24T15:51:03.302Z,7.50
2023-03-24T15:53:49.335Z,7.30
2023-03-24T15:56:27.130Z,8.40
2023-03-24T15:59:17.710Z,7.50
2023-03-24T16:01:50.564Z,8.80
2023-03-24T16:04:20.851Z,8.60
2023-03-24T16:06:54.144Z,8.20
2023-03-24T16:09:27.977Z,7.20
2023-03-24T16:11:56.500Z,8.70
2023-03-24T16:14:31.490Z,8.70
2023-03-24T16:17:03.333Z,8.70
2023-03-24T16:19:33.106Z,9.10
2023-03-24T16:22:12.074Z,9.80
2023-03-24T16:24:40.564Z,9.50
2023-03-24T16:27:11.934Z,8.90
2023-03-24T16:29:40.838Z,9.20
2023-03-24T16:32:10.392Z,9.60
2023-03-24T16:34:38.691Z,11.40
2023-03-24T16:37:08.343Z,13.40
2023-03-24T16:39:36.904Z,12.40
2023-03-24T16:42:05.848Z,11.20
2023-03-24T16:44:34.777Z,9.40
2023-03-24T16:47:04.268Z,10.80
2023-03-24T16:49:32.838Z,9.30
2023-03-24T16:52:01.248Z,9.10
2023-03-24T16:54:32.493Z,9.10
2023-03-24T16:57:01.182Z,8.10
2023-03-24T16:59:29.734Z,8.60
2023-03-24T17:02:06.194Z,8.20
2023-03-24T17:04:35.525Z,8.40
2023-03-24T17:07:03.985Z,8.70
2023-03-24T17:09:35.535Z,9.20
2023-03-24T17:12:04.771Z,9.00
2023-03-24T17:14:33.364Z,9.20
2023-03-24T17:17:02.960Z,10.30
2023-03-24T17:19:31.537Z,10.20
2023-03-24T17:22:07.139Z,10.40
2023-03-24T17:24:38.198Z,12.80
2023-03-24T17:27:13.853Z,11.70
2023-03-24T17:29:42.505Z,12.20
2023-03-24T17:32:11.363Z,11.70
2023-03-24T17:34:46.162Z,11.20
2023-03-24T17:37:14.823Z,11.00
2023-03-24T17:39:43.497Z,12.80
2023-03-24T17:42:14.876Z,12.10
2023-03-24T17:44:44.957Z,13.50
2023-03-24T17:47:19.489Z,12.90
2023-03-24T17:50:11.532Z,12.50
2023-03-24T17:52:47.840Z,13.10
2023-03-24T17:55:18.069Z,13.20
2023-03-24T17:57:46.471Z,14.20
2023-03-24T18:00:16.528Z,11.50
2023-03-24T18:02:45.720Z,13.00
2023-03-24T18:05:16.115Z,12.50
2023-03-24T18:07:47.388Z,13.50
2023-03-24T18:10:15.945Z,12.60
2023-03-24T18:12:47.289Z,11.90
2023-03-24T18:15:16.054Z,13.80
2023-03-24T18:17:44.910Z,13.50
2023-03-24T18:20:21.231Z,12.10
2023-03-24T18:22:49.679Z,12.90
2023-03-24T18:25:18.600Z,13.30
2023-03-24T18:27:48.804Z,12.70
2023-03-24T18:30:17.717Z,12.60
2023-03-24T18:32:46.508Z,12.50
2023-03-24T18:35:17.940Z,12.40
2023-03-24T18:37:46.454Z,13.50
2023-03-24T18:40:15.932Z,12.80
2023-03-24T18:42:45.474Z,13.10
2023-03-24T18:45:17.674Z,12.40
2023-03-24T18:47:47.928Z,13.90
2023-03-24T18:50:17.102Z,13.40
2023-03-24T18:52:50.146Z,14.10
2023-03-24T18:55:20.508Z,13.50
2023-03-24T18:57:49.280Z,14.90
2023-03-24T19:00:21.989Z,14.60
2023-03-24T19:02:52.536Z,17.30
2023-03-24T19:05:20.993Z,17.70
2023-03-24T19:07:52.107Z,17.10
2023-03-24T19:10:20.986Z,18.00
2023-03-24T19:12:50.135Z,20.30
2023-03-24T19:15:19.060Z,17.50
2023-03-24T19:17:47.956Z,16.20
2023-03-24T19:20:18.737Z,14.80
2023-03-24T19:22:47.462Z,17.90
2023-03-24T19:25:16.087Z,16.90
2023-03-24T19:27:49.100Z,16.00
2023-03-24T19:30:18.485Z,17.70
2023-03-24T19:32:48.203Z,18.00
2023-03-24T19:35:21.733Z,18.50
2023-03-24T19:37:50.967Z,19.00
2023-03-24T19:42:51.644Z,19.30
2023-03-24T19:45:20.765Z,20.60
2023-03-24T19:47:49.760Z,22.60
2023-03-24T19:50:18.729Z,23.10
2023-03-24T19:52:50.839Z,21.50
2023-03-24T19:55:19.684Z,21.80
2023-03-24T19:57:48.023Z,21.00
2023-03-24T20:00:16.951Z,20.20
2023-03-24T20:02:45.989Z,18.60
2023-03-24T20:05:14.932Z,22.80
2023-03-24T20:07:44.170Z,21.80
2023-03-24T20:10:12.566Z,20.50
2023-03-24T20:12:45.895Z,18.50
2023-03-24T20:15:15.795Z,20.90
2023-03-24T20:17:44.602Z,23.80
2023-03-24T20:20:15.923Z,20.30
2023-03-24T20:22:48.998Z,22.50
2023-03-24T20:25:18.853Z,23.30
2023-03-24T20:27:47.970Z,21.00
2023-03-24T20:30:18.957Z,21.00
2023-03-24T20:32:48.103Z,20.80
2023-03-24T20:35:18.433Z,22.00
2023-03-24T20:37:47.182Z,24.50
2023-03-24T20:40:15.770Z,25.60
2023-03-24T20:42:44.504Z,27.40
2023-03-24T20:45:12.845Z,29.90
2023-03-24T20:47:44.787Z,26.80
2023-03-24T20:50:13.937Z,28.30
2023-03-24T20:52:47.656Z,27.80
2023-03-24T20:55:36.568Z,23.50
2023-03-24T20:58:11.532Z,22.30
2023-03-24T21:00:42.137Z,20.40
2023-03-24T21:03:11.413Z,20.80
2023-03-24T21:05:40.172Z,19.80
2023-03-24T21:08:08.634Z,18.60
2023-03-24T21:10:48.673Z,20.60
2023-03-24T21:13:17.566Z,20.70
2023-03-24T21:15:46.295Z,20.90
2023-03-24T21:18:18.087Z,20.00
2023-03-24T21:20:57.109Z,21.10
2023-03-24T21:23:25.938Z,19.50
2023-03-24T21:25:56.571Z,21.90
2023-03-24T21:28:28.310Z,23.30
2023-03-24T21:31:06.460Z,21.40
2023-03-24T21:33:40.174Z,22.10
2023-03-24T21:36:10.144Z,22.90
2023-03-24T21:38:39.352Z,22.30
2023-03-24T21:41:08.602Z,21.50
2023-03-24T21:43:38.462Z,23.20
2023-03-24T21:46:15.194Z,23.40
2023-03-24T21:48:52.084Z,28.30
2023-03-24T21:51:38.920Z,28.20
2023-03-24T21:54:15.132Z,27.30
2023-03-24T21:56:45.231Z,28.60
2023-03-24T21:59:14.133Z,24.40
2023-03-24T22:01:42.981Z,25.20
2023-03-24T22:04:11.447Z,23.60
2023-03-24T22:06:40.004Z,22.20
2023-03-24T22:09:10.596Z,22.80
2023-03-24T22:11:43.072Z,23.10
2023-03-24T22:14:19.316Z,21.60
2023-03-24T22:16:49.938Z,22.10
2023-03-24T22:19:20.399Z,21.50
2023-03-24T22:22:02.443Z,21.40
2023-03-24T22:24:31.890Z,21.20
2023-03-24T22:27:00.456Z,20.70
2023-03-24T22:29:29.388Z,20.30
2023-03-24T22:31:57.917Z,21.30
2023-03-24T22:34:28.858Z,21.50
2023-03-24T22:36:57.309Z,22.20
2023-03-24T22:39:26.207Z,21.00
2023-03-24T22:41:57.156Z,22.20
2023-03-24T22:44:25.559Z,20.80
2023-03-24T22:46:59.349Z,22.00
2023-03-24T22:49:33.104Z,21.40
2023-03-24T22:52:01.800Z,22.60
2023-03-24T22:54:35.813Z,21.80
2023-03-24T22:57:04.470Z,21.20
2023-03-24T22:59:39.311Z,22.40
2023-03-24T23:02:10.391Z,24.40
2023-03-24T23:04:40.796Z,21.50
2023-03-24T23:07:10.389Z,20.50
2023-03-24T23:09:43.304Z,21.50
2023-03-24T23:12:13.923Z,22.20
2023-03-24T23:14:42.446Z,21.80
2023-03-24T23:17:10.742Z,23.10
2023-03-24T23:19:39.654Z,20.50
2023-03-24T23:22:08.592Z,24.30
2023-03-24T23:24:39.660Z,26.80
2023-03-24T23:27:08.801Z,28.30
2023-03-24T23:29:41.355Z,25.10
2023-03-24T23:32:09.718Z,22.30
2023-03-24T23:34:38.278Z,23.80
2023-03-24T23:37:06.938Z,22.70
2023-03-24T23:39:38.504Z,23.90
2023-03-24T23:42:06.776Z,23.40
2023-03-24T23:44:38.850Z,23.00
2023-03-24T23:47:07.180Z,24.90
2023-03-24T23:49:35.827Z,24.40
2023-03-24T23:52:04.205Z,22.00
2023-03-24T23:54:32.581Z,25.20
2023-03-24T23:57:00.875Z,25.80
2023-03-24T23:59:30.799Z,24.90
